^^
Grace C. Lehan Memorial Weather Station Historical Data
Daily Summary for June 14, 2021 Units:  Both    English   Metric
Daily Weekly Monthly Yearly
  High: Low: Average:
Temperature: 78.3 °F /  25.7 °C 43.5 °F /  6.4 °C 65.4 °F /  18.6 °C
Dew Point: 49.4 °F /  9.7 °C 38.6 °F /  3.7 °C 42.4 °F /  5.8 °C
Humidity: 87% 25.2% 47%
Wind Speed: 8.3mph /  13.4km/h - 0.2mph /  0.3km/h
Wind Gust: 20mph /  32.2km/h - -
Wind- - South
Pressure: 30.20 in /  1022.6 hPa 30.08 in /  1018.5 hPa -
Precipitation: 0.00 in /  0 mm    
 
 
Tabular Data for June 14, 2021
Time Temperature Dew Point Pressure Wind Wind Speed Wind Gust Humidity Rainfall Rate (Hourly) solar
00:04 52.5 °F /  11.4 °C 38.6 °F /  3.7 °C 30.14in /  1020.5hPa Calm     59% 0.00in /  0mm 0 W/m2
00:09 52.5 °F /  11.4 °C 38.9 °F /  3.8 °C 30.14in /  1020.5hPa Calm     59.7% 0.00in /  0mm 0 W/m2
00:14 52.4 °F /  11.3 °C 39 °F /  3.9 °C 30.14in /  1020.5hPa Calm     60.2% 0.00in /  0mm 0 W/m2
00:19 52.3 °F /  11.3 °C 39.6 °F /  4.2 °C 30.14in /  1020.5hPa Calm     61.8% 0.00in /  0mm 0 W/m2
00:24 52.2 °F /  11.2 °C 39.7 °F /  4.3 °C 30.14in /  1020.5hPa Calm     62.3% 0.00in /  0mm 0 W/m2
00:29 51.9 °F /  11.1 °C 39.9 °F /  4.4 °C 30.14in /  1020.5hPa Calm     63.4% 0.00in /  0mm 0 W/m2
00:34 51.7 °F /  10.9 °C 39.9 °F /  4.4 °C 30.14in /  1020.5hPa Calm     64% 0.00in /  0mm 0 W/m2
00:39 51.4 °F /  10.8 °C 40 °F /  4.4 °C 30.14in /  1020.5hPa Calm     64.9% 0.00in /  0mm 0 W/m2
00:44 51.2 °F /  10.7 °C 39.9 °F /  4.4 °C 30.15in /  1020.9hPa Calm     65% 0.00in /  0mm 0 W/m2
00:49 50.9 °F /  10.5 °C 39.6 °F /  4.2 °C 30.15in /  1020.9hPa Calm     65% 0.00in /  0mm 0 W/m2
00:54 50.7 °F /  10.4 °C 39.5 °F /  4.2 °C 30.15in /  1020.9hPa Calm     65.4% 0.00in /  0mm 0 W/m2
00:59 50.5 °F /  10.3 °C 39.6 °F /  4.2 °C 30.15in /  1020.9hPa NW 0.1mph /  0.2km/h 2mph /  3.2km/h 66.2% 0.00in /  0mm 0 W/m2
01:04 50.2 °F /  10.1 °C 39.9 °F /  4.4 °C 30.15in /  1020.9hPa NW 0.2mph /  0.3km/h 2mph /  3.2km/h 67.7% 0.00in /  0mm 0 W/m2
01:09 49.8 °F /  9.9 °C 40.1 °F /  4.5 °C 30.15in /  1020.9hPa Calm   2mph /  3.2km/h 69% 0.00in /  0mm 0 W/m2
01:14 49.5 °F /  9.7 °C 39.7 °F /  4.3 °C 30.15in /  1020.9hPa Calm   2mph /  3.2km/h 69% 0.00in /  0mm 0 W/m2
01:19 49.2 °F /  9.6 °C 39.6 °F /  4.2 °C 30.15in /  1020.9hPa Calm   2mph /  3.2km/h 69.4% 0.00in /  0mm 0 W/m2
01:24 48.9 °F /  9.4 °C 39.8 °F /  4.3 °C 30.15in /  1020.9hPa NW 0.3mph /  0.5km/h 3mph /  4.8km/h 70.6% 0.00in /  0mm 0 W/m2
01:29 48.7 °F /  9.3 °C 39.8 °F /  4.3 °C 30.15in /  1020.9hPa Calm   3mph /  4.8km/h 71% 0.00in /  0mm 0 W/m2
01:34 48.6 °F /  9.2 °C 39.8 °F /  4.3 °C 30.15in /  1020.9hPa Calm   3mph /  4.8km/h 71.6% 0.00in /  0mm 0 W/m2
01:39 48.4 °F /  9.1 °C 39.8 °F /  4.3 °C 30.15in /  1020.9hPa Calm     72.2% 0.00in /  0mm 0 W/m2
01:44 48.1 °F /  8.9 °C 39.9 °F /  4.4 °C 30.14in /  1020.5hPa Calm     73% 0.00in /  0mm 0 W/m2
01:49 47.9 °F /  8.8 °C 39.8 °F /  4.3 °C 30.14in /  1020.5hPa Calm   1mph /  1.6km/h 73.4% 0.00in /  0mm 0 W/m2
01:54 47.8 °F /  8.8 °C 40 °F /  4.4 °C 30.14in /  1020.5hPa Calm   1mph /  1.6km/h 74% 0.00in /  0mm 0 W/m2
01:59 47.7 °F /  8.7 °C 39.9 °F /  4.4 °C 30.14in /  1020.5hPa Calm   1mph /  1.6km/h 74% 0.00in /  0mm 0 W/m2
02:04 47.7 °F /  8.7 °C 39.8 °F /  4.3 °C 30.14in /  1020.5hPa Calm   1mph /  1.6km/h 74% 0.00in /  0mm 0 W/m2
02:09 47.6 °F /  8.7 °C 39.7 °F /  4.3 °C 30.14in /  1020.5hPa Calm     74% 0.00in /  0mm 0 W/m2
02:14 47.5 °F /  8.6 °C 39.7 °F /  4.3 °C 30.14in /  1020.5hPa Calm     74% 0.00in /  0mm 0 W/m2
02:19 47.5 °F /  8.6 °C 40 °F /  4.4 °C 30.14in /  1020.5hPa Calm     75% 0.00in /  0mm 0 W/m2
02:24 47.4 °F /  8.6 °C 39.9 °F /  4.4 °C 30.14in /  1020.5hPa Calm     75% 0.00in /  0mm 0 W/m2
02:29 47.3 °F /  8.5 °C 39.8 °F /  4.3 °C 30.14in /  1020.5hPa Calm     75% 0.00in /  0mm 0 W/m2
02:34 47.3 °F /  8.5 °C 39.8 °F /  4.3 °C 30.14in /  1020.5hPa Calm     75% 0.00in /  0mm 0 W/m2
02:39 47.2 °F /  8.4 °C 39.9 °F /  4.4 °C 30.14in /  1020.5hPa Calm     75.8% 0.00in /  0mm 0 W/m2
02:44 47 °F /  8.3 °C 39.9 °F /  4.4 °C 30.14in /  1020.5hPa Calm     76% 0.00in /  0mm 0 W/m2
02:49 46.9 °F /  8.3 °C 39.7 °F /  4.3 °C 30.14in /  1020.5hPa Calm     76% 0.00in /  0mm 0 W/m2
02:54 46.7 °F /  8.2 °C 39.8 °F /  4.3 °C 30.14in /  1020.5hPa Calm     76.5% 0.00in /  0mm 0 W/m2
02:59 46.6 °F /  8.1 °C 39.8 °F /  4.3 °C 30.14in /  1020.5hPa Calm     77% 0.00in /  0mm 0 W/m2
03:04 46.4 °F /  8 °C 39.7 °F /  4.3 °C 30.14in /  1020.5hPa Calm     77.3% 0.00in /  0mm 0 W/m2
03:09 46.3 °F /  7.9 °C 39.8 °F /  4.3 °C 30.14in /  1020.5hPa Calm     78% 0.00in /  0mm 0 W/m2
03:14 46.1 °F /  7.8 °C 39.6 °F /  4.2 °C 30.14in /  1020.5hPa Calm     78% 0.00in /  0mm 0 W/m2
03:17 46 °F /  7.8 °C 39.6 °F /  4.2 °C 30.15in /  1020.9hPa Calm     78.1% 0.00in /  0mm 0 W/m2
03:30 45.6 °F /  7.6 °C 39.5 °F /  4.2 °C 30.15in /  1020.9hPa Calm     79% 0.00in /  0mm 0 W/m2
04:04 44.9 °F /  7.2 °C 39.7 °F /  4.3 °C 30.15in /  1020.9hPa Calm     82% 0.00in /  0mm 0 W/m2
04:09 44.8 °F /  7.1 °C 39.7 °F /  4.3 °C 30.15in /  1020.9hPa Calm     82% 0.00in /  0mm 0 W/m2
04:14 44.7 °F /  7.1 °C 39.5 °F /  4.2 °C 30.15in /  1020.9hPa Calm     82% 0.00in /  0mm 0 W/m2
04:19 44.6 °F /  7 °C 39.4 °F /  4.1 °C 30.15in /  1020.9hPa Calm     82% 0.00in /  0mm 0 W/m2
04:24 44.5 °F /  6.9 °C 39.4 °F /  4.1 °C 30.15in /  1020.9hPa Calm     82.3% 0.00in /  0mm 0 W/m2
04:29 44.4 °F /  6.9 °C 39.6 °F /  4.2 °C 30.15in /  1020.9hPa Calm     83% 0.00in /  0mm 0 W/m2
04:34 44.3 °F /  6.8 °C 39.6 °F /  4.2 °C 30.15in /  1020.9hPa Calm     83.2% 0.00in /  0mm 0 W/m2
04:39 44.3 °F /  6.8 °C 39.7 °F /  4.3 °C 30.16in /  1021.2hPa Calm     84% 0.00in /  0mm 0 W/m2
04:44 44.2 °F /  6.8 °C 39.9 °F /  4.4 °C 30.16in /  1021.2hPa Calm     85% 0.00in /  0mm 0 W/m2
04:49 44.1 °F /  6.7 °C 39.9 °F /  4.4 °C 30.16in /  1021.2hPa Calm     85% 0.00in /  0mm 0 W/m2
04:54 44.1 °F /  6.7 °C 40.1 °F /  4.5 °C 30.16in /  1021.2hPa Calm     85.6% 0.00in /  0mm 0 W/m2
04:59 44.1 °F /  6.7 °C 40.2 °F /  4.6 °C 30.16in /  1021.2hPa Calm     86% 0.00in /  0mm 0 W/m2
05:00 44.1 °F /  6.7 °C 40.2 °F /  4.6 °C 30.16in /  1021.2hPa Calm     86% 0.00in /  0mm 0 W/m2
05:30 43.9 °F /  6.6 °C 39.7 °F /  4.3 °C 30.16in /  1021.2hPa Calm     85% 0.00in /  0mm 0 W/m2
06:00 43.5 °F /  6.4 °C 39.6 °F /  4.2 °C 30.17in /  1021.6hPa Calm     86% 0.00in /  0mm 9 W/m2
06:30 44.1 °F /  6.7 °C 40.5 °F /  4.7 °C 30.18in /  1021.9hPa Calm     87% 0.00in /  0mm 34 W/m2
07:00 48.4 °F /  9.1 °C 43.2 °F /  6.2 °C 30.19in /  1022.2hPa Calm     82% 0.00in /  0mm 130 W/m2
07:30 53.6 °F /  12 °C 44.8 °F /  7.1 °C 30.19in /  1022.2hPa Calm     72% 0.00in /  0mm 282 W/m2
08:04 57.3 °F /  14.1 °C 44.7 °F /  7.1 °C 30.20in /  1022.6hPa Calm     62.5% 0.00in /  0mm 452 W/m2
08:09 57.9 °F /  14.4 °C 45.2 °F /  7.3 °C 30.20in /  1022.6hPa Calm   1mph /  1.6km/h 62.5% 0.00in /  0mm 469 W/m2
08:14 58.8 °F /  14.9 °C 45.2 °F /  7.3 °C 30.19in /  1022.2hPa Calm   1mph /  1.6km/h 60.6% 0.00in /  0mm 487 W/m2
08:19 59.6 °F /  15.3 °C 45.9 °F /  7.7 °C 30.19in /  1022.2hPa Calm   1mph /  1.6km/h 60.5% 0.00in /  0mm 503 W/m2
08:24 60.4 °F /  15.8 °C 46.2 °F /  7.9 °C 30.19in /  1022.2hPa Calm   1mph /  1.6km/h 59.4% 0.00in /  0mm 520 W/m2
08:29 61.2 °F /  16.2 °C 46.4 °F /  8 °C 30.19in /  1022.2hPa Calm   1mph /  1.6km/h 58.3% 0.00in /  0mm 534 W/m2
08:34 61.7 °F /  16.5 °C 46.3 °F /  7.9 °C 30.20in /  1022.6hPa Calm   1mph /  1.6km/h 56.9% 0.00in /  0mm 552 W/m2
08:39 62.3 °F /  16.8 °C 46.8 °F /  8.2 °C 30.20in /  1022.6hPa Calm     56.8% 0.00in /  0mm 568 W/m2
08:44 63.3 °F /  17.4 °C 47.8 °F /  8.8 °C 30.20in /  1022.6hPa Calm     56.9% 0.00in /  0mm 584 W/m2
08:49 64 °F /  17.8 °C 46.7 °F /  8.2 °C 30.20in /  1022.6hPa Calm   1mph /  1.6km/h 53.3% 0.00in /  0mm 601 W/m2
08:54 64.6 °F /  18.1 °C 46.9 °F /  8.3 °C 30.20in /  1022.6hPa Calm   1mph /  1.6km/h 52.6% 0.00in /  0mm 615 W/m2
08:59 65.1 °F /  18.4 °C 46.5 °F /  8.1 °C 30.19in /  1022.2hPa Calm   1mph /  1.6km/h 51% 0.00in /  0mm 629 W/m2
09:04 65.8 °F /  18.8 °C 47.6 °F /  8.7 °C 30.19in /  1022.2hPa Calm   1mph /  1.6km/h 51.8% 0.00in /  0mm 645 W/m2
09:09 66.6 °F /  19.2 °C 47.6 °F /  8.7 °C 30.19in /  1022.2hPa Calm     50.4% 0.00in /  0mm 659 W/m2
09:14 67.3 °F /  19.6 °C 48.1 °F /  8.9 °C 30.19in /  1022.2hPa Calm   1mph /  1.6km/h 50% 0.00in /  0mm 675 W/m2
09:19 67.9 °F /  19.9 °C 47.6 °F /  8.7 °C 30.19in /  1022.2hPa Calm   1mph /  1.6km/h 48.2% 0.00in /  0mm 691 W/m2
09:24 68.1 °F /  20.1 °C 47.5 °F /  8.6 °C 30.19in /  1022.2hPa Calm   1mph /  1.6km/h 47.6% 0.00in /  0mm 705 W/m2
09:29 68.5 °F /  20.3 °C 49.1 °F /  9.5 °C 30.19in /  1022.2hPa Calm   1mph /  1.6km/h 49.9% 0.00in /  0mm 719 W/m2
09:34 69.2 °F /  20.7 °C 48.9 °F /  9.4 °C 30.19in /  1022.2hPa Calm   1mph /  1.6km/h 48.3% 0.00in /  0mm 729 W/m2
09:39 69.9 °F /  21.1 °C 48.8 °F /  9.3 °C 30.18in /  1021.9hPa Calm   1mph /  1.6km/h 47.1% 0.00in /  0mm 744 W/m2
09:44 70.5 °F /  21.4 °C 48.5 °F /  9.2 °C 30.18in /  1021.9hPa Calm   1mph /  1.6km/h 45.6% 0.00in /  0mm 756 W/m2
09:49 71.3 °F /  21.8 °C 49.4 °F /  9.7 °C 30.18in /  1021.9hPa NNW 0.1mph /  0.2km/h 2mph /  3.2km/h 45.9% 0.00in /  0mm 770 W/m2
09:54 72 °F /  22.2 °C 49.2 °F /  9.6 °C 30.18in /  1021.9hPa Calm   2mph /  3.2km/h 44.5% 0.00in /  0mm 782 W/m2
09:59 72.5 °F /  22.5 °C 48.9 °F /  9.4 °C 30.18in /  1021.9hPa Calm   2mph /  3.2km/h 43.3% 0.00in /  0mm 795 W/m2
10:04 72.6 °F /  22.6 °C 47.1 °F /  8.4 °C 30.18in /  1021.9hPa Calm   2mph /  3.2km/h 40.2% 0.00in /  0mm 803 W/m2
10:09 72.8 °F /  22.7 °C 49.3 °F /  9.6 °C 30.18in /  1021.9hPa Calm     43.5% 0.00in /  0mm 819 W/m2
10:14 73.1 °F /  22.8 °C 49.2 °F /  9.6 °C 30.18in /  1021.9hPa NNW 0.1mph /  0.2km/h 2mph /  3.2km/h 42.8% 0.00in /  0mm 823 W/m2
10:19 73.6 °F /  23.1 °C 49 °F /  9.4 °C 30.18in /  1021.9hPa North 0.2mph /  0.3km/h 2mph /  3.2km/h 41.8% 0.00in /  0mm 835 W/m2
10:24 74.4 °F /  23.6 °C 49.1 °F /  9.5 °C 30.18in /  1021.9hPa North 0.2mph /  0.3km/h 2mph /  3.2km/h 40.9% 0.00in /  0mm 846 W/m2
10:29 74.7 °F /  23.7 °C 48.7 °F /  9.3 °C 30.18in /  1021.9hPa North 0.5mph /  0.8km/h 3mph /  4.8km/h 39.8% 0.00in /  0mm 858 W/m2
10:34 75.2 °F /  24 °C 48.1 °F /  8.9 °C 30.18in /  1021.9hPa Calm   3mph /  4.8km/h 38.4% 0.00in /  0mm 868 W/m2
10:39 75.4 °F /  24.1 °C 47.9 °F /  8.8 °C 30.18in /  1021.9hPa Calm   1mph /  1.6km/h 37.8% 0.00in /  0mm 877 W/m2
10:44 75.9 °F /  24.4 °C 47.9 °F /  8.8 °C 30.17in /  1021.6hPa NNE 0.2mph /  0.3km/h 2mph /  3.2km/h 37.3% 0.00in /  0mm 884 W/m2
10:49 75.9 °F /  24.4 °C 46.1 °F /  7.8 °C 30.17in /  1021.6hPa NNE 0.3mph /  0.5km/h 2mph /  3.2km/h 34.7% 0.00in /  0mm 891 W/m2
10:54 75.9 °F /  24.4 °C 46.9 °F /  8.3 °C 30.17in /  1021.6hPa NNE 0.9mph /  1.4km/h 4mph /  6.4km/h 35.8% 0.00in /  0mm 902 W/m2
10:59 75.8 °F /  24.3 °C 45.6 °F /  7.6 °C 30.17in /  1021.6hPa NE 0.5mph /  0.8km/h 4mph /  6.4km/h 34.1% 0.00in /  0mm 914 W/m2
11:04 75.5 °F /  24.2 °C 44.6 °F /  7 °C 30.17in /  1021.6hPa Calm   4mph /  6.4km/h 33.3% 0.00in /  0mm 919 W/m2
11:09 75.5 °F /  24.2 °C 45.9 °F /  7.7 °C 30.17in /  1021.6hPa NE 0.4mph /  0.6km/h 4mph /  6.4km/h 34.9% 0.00in /  0mm 926 W/m2
11:14 75.8 °F /  24.3 °C 45.5 °F /  7.5 °C 30.17in /  1021.6hPa NE 1mph /  1.6km/h 5mph /  8km/h 34.1% 0.00in /  0mm 928 W/m2
11:19 76 °F /  24.4 °C 46.6 °F /  8.1 °C 30.17in /  1021.6hPa East 1.2mph /  1.9km/h 5mph /  8km/h 35.3% 0.00in /  0mm 944 W/m2
11:24 76.5 °F /  24.7 °C 46.4 °F /  8 °C 30.17in /  1021.6hPa East 1.4mph /  2.3km/h 7mph /  11.3km/h 34.5% 0.00in /  0mm 972 W/m2
11:29 76.5 °F /  24.7 °C 45.2 °F /  7.3 °C 30.17in /  1021.6hPa ENE 0.2mph /  0.3km/h 7mph /  11.3km/h 32.9% 0.00in /  0mm 1007 W/m2
11:34 76.6 °F /  24.8 °C 45.5 °F /  7.5 °C 30.16in /  1021.2hPa ENE 0.7mph /  1.1km/h 7mph /  11.3km/h 33.2% 0.00in /  0mm 1007 W/m2
11:39 76.6 °F /  24.8 °C 45.4 °F /  7.4 °C 30.16in /  1021.2hPa ENE 1.8mph /  2.9km/h 7mph /  11.3km/h 33.1% 0.00in /  0mm 1002 W/m2
11:44 77 °F /  25 °C 44.6 °F /  7 °C 30.16in /  1021.2hPa ENE 2.7mph /  4.3km/h 7mph /  11.3km/h 31.7% 0.00in /  0mm 984 W/m2
11:49 76.9 °F /  24.9 °C 44.6 °F /  7 °C 30.16in /  1021.2hPa ENE 0.9mph /  1.4km/h 7mph /  11.3km/h 31.7% 0.00in /  0mm 993 W/m2
11:54 76.9 °F /  24.9 °C 46.2 °F /  7.9 °C 30.16in /  1021.2hPa ENE 0.3mph /  0.5km/h 7mph /  11.3km/h 33.8% 0.00in /  0mm 1004 W/m2
11:59 77.2 °F /  25.1 °C 45.5 °F /  7.5 °C 30.16in /  1021.2hPa Calm   7mph /  11.3km/h 32.4% 0.00in /  0mm 1055 W/m2
12:04 78 °F /  25.6 °C 45 °F /  7.2 °C 30.15in /  1020.9hPa Calm     31% 0.00in /  0mm 1069 W/m2
12:09 78.1 °F /  25.6 °C 45.7 °F /  7.6 °C 30.15in /  1020.9hPa ENE 0.4mph /  0.6km/h 3mph /  4.8km/h 31.9% 0.00in /  0mm 1069 W/m2
12:14 78.1 °F /  25.6 °C 46.3 °F /  7.9 °C 30.15in /  1020.9hPa ENE 0.1mph /  0.2km/h 3mph /  4.8km/h 32.5% 0.00in /  0mm 1065 W/m2
12:19 77.8 °F /  25.4 °C 43.8 °F /  6.6 °C 30.15in /  1020.9hPa ENE 0.1mph /  0.2km/h 3mph /  4.8km/h 30% 0.00in /  0mm 1106 W/m2
12:24 77.6 °F /  25.3 °C 47.3 °F /  8.5 °C 30.15in /  1020.9hPa Calm   3mph /  4.8km/h 34.4% 0.00in /  0mm 1083 W/m2
12:29 77.7 °F /  25.4 °C 44.9 °F /  7.2 °C 30.15in /  1020.9hPa NW 0.8mph /  1.3km/h 5mph /  8km/h 31.3% 0.00in /  0mm 1083 W/m2
12:34 77.8 °F /  25.4 °C 44.1 °F /  6.7 °C 30.14in /  1020.5hPa Calm   5mph /  8km/h 30.3% 0.00in /  0mm 1049 W/m2
12:39 78.1 °F /  25.6 °C 47 °F /  8.3 °C 30.14in /  1020.5hPa Calm   2mph /  3.2km/h 33.3% 0.00in /  0mm 1095 W/m2
12:44 78.3 °F /  25.7 °C 44.8 °F /  7.1 °C 30.14in /  1020.5hPa North 0.4mph /  0.6km/h 5mph /  8km/h 30.5% 0.00in /  0mm 1109 W/m2
12:49 77.9 °F /  25.5 °C 43.9 °F /  6.6 °C 30.14in /  1020.5hPa Calm   5mph /  8km/h 29.9% 0.00in /  0mm 156 W/m2
12:54 77.1 °F /  25.1 °C 43.5 °F /  6.4 °C 30.14in /  1020.5hPa NE 0.7mph /  1.1km/h 6mph /  9.7km/h 30.2% 0.00in /  0mm 773 W/m2
12:59 76.4 °F /  24.7 °C 42.9 °F /  6.1 °C 30.14in /  1020.5hPa ENE 1.3mph /  2.1km/h 6mph /  9.7km/h 30.2% 0.00in /  0mm 1048 W/m2
13:04 76.3 °F /  24.6 °C 43.9 °F /  6.6 °C 30.13in /  1020.2hPa Calm   6mph /  9.7km/h 31.5% 0.00in /  0mm 1069 W/m2
13:09 76.4 °F /  24.7 °C 44.6 °F /  7 °C 30.13in /  1020.2hPa North 0.6mph /  1km/h 4mph /  6.4km/h 32.3% 0.00in /  0mm 1069 W/m2
13:14 76.8 °F /  24.9 °C 43.7 °F /  6.5 °C 30.13in /  1020.2hPa NE 2.4mph /  3.9km/h 6mph /  9.7km/h 30.8% 0.00in /  0mm 1020 W/m2
13:19 77.2 °F /  25.1 °C 42.2 °F /  5.7 °C 30.13in /  1020.2hPa NNE 0.5mph /  0.8km/h 6mph /  9.7km/h 28.7% 0.00in /  0mm 1065 W/m2
13:24 77.2 °F /  25.1 °C 40.4 °F /  4.7 °C 30.13in /  1020.2hPa NNE 0.3mph /  0.5km/h 6mph /  9.7km/h 26.7% 0.00in /  0mm 1030 W/m2
13:29 77.1 °F /  25.1 °C 42.1 °F /  5.6 °C 30.13in /  1020.2hPa Calm   6mph /  9.7km/h 28.7% 0.00in /  0mm 1049 W/m2
13:34 77.2 °F /  25.1 °C 44.1 °F /  6.7 °C 30.13in /  1020.2hPa WNW 0.9mph /  1.4km/h 6mph /  9.7km/h 30.8% 0.00in /  0mm 1071 W/m2
13:39 77.5 °F /  25.3 °C 42.2 °F /  5.7 °C 30.12in /  1019.9hPa WNW 4.2mph /  6.8km/h 10mph /  16.1km/h 28.4% 0.00in /  0mm 1106 W/m2
13:44 77.9 °F /  25.5 °C 41.4 °F /  5.2 °C 30.12in /  1019.9hPa WNW 5.1mph /  8.2km/h 11mph /  17.7km/h 27.1% 0.00in /  0mm 1113 W/m2
13:49 78 °F /  25.6 °C 40.2 °F /  4.6 °C 30.12in /  1019.9hPa NW 0.5mph /  0.8km/h 11mph /  17.7km/h 25.9% 0.00in /  0mm 1132 W/m2
13:54 77.9 °F /  25.5 °C 41.3 °F /  5.2 °C 30.12in /  1019.9hPa NNE 0.9mph /  1.4km/h 11mph /  17.7km/h 27.1% 0.00in /  0mm 1130 W/m2
13:59 77.8 °F /  25.4 °C 39.4 °F /  4.1 °C 30.12in /  1019.9hPa East 1.7mph /  2.7km/h 11mph /  17.7km/h 25.2% 0.00in /  0mm 1099 W/m2
14:04 77.7 °F /  25.4 °C 41.5 °F /  5.3 °C 30.11in /  1019.5hPa NNE 1mph /  1.6km/h 11mph /  17.7km/h 27.4% 0.00in /  0mm 1097 W/m2
14:09 77.7 °F /  25.4 °C 41.9 °F /  5.5 °C 30.11in /  1019.5hPa North 1mph /  1.6km/h 5mph /  8km/h 27.9% 0.00in /  0mm 1113 W/m2
14:14 77.7 °F /  25.4 °C 41.4 °F /  5.2 °C 30.11in /  1019.5hPa WNW 0.4mph /  0.6km/h 5mph /  8km/h 27.4% 0.00in /  0mm 1086 W/m2
14:19 77.7 °F /  25.4 °C 41.7 °F /  5.4 °C 30.11in /  1019.5hPa WNW 1.8mph /  2.9km/h 6mph /  9.7km/h 27.7% 0.00in /  0mm 309 W/m2
14:24 77.5 °F /  25.3 °C 40.8 °F /  4.9 °C 30.11in /  1019.5hPa NW 0.1mph /  0.2km/h 6mph /  9.7km/h 26.9% 0.00in /  0mm 292 W/m2
14:29 77.2 °F /  25.1 °C 40.2 °F /  4.6 °C 30.11in /  1019.5hPa NE 0.8mph /  1.3km/h 6mph /  9.7km/h 26.5% 0.00in /  0mm 237 W/m2
14:34 76.9 °F /  24.9 °C 39.3 °F /  4.1 °C 30.11in /  1019.5hPa ENE 0.1mph /  0.2km/h 6mph /  9.7km/h 25.8% 0.00in /  0mm 281 W/m2
14:39 76.9 °F /  24.9 °C 40.5 °F /  4.7 °C 30.11in /  1019.5hPa North 0.8mph /  1.3km/h 5mph /  8km/h 27.1% 0.00in /  0mm 239 W/m2
14:44 76.7 °F /  24.8 °C 41.3 °F /  5.2 °C 30.11in /  1019.5hPa NNW 0.1mph /  0.2km/h 5mph /  8km/h 28.2% 0.00in /  0mm 202 W/m2
14:49 76.4 °F /  24.7 °C 40.1 °F /  4.5 °C 30.11in /  1019.5hPa Calm   5mph /  8km/h 27.2% 0.00in /  0mm 214 W/m2
14:54 76 °F /  24.4 °C 39.5 °F /  4.2 °C 30.11in /  1019.5hPa Calm   5mph /  8km/h 26.9% 0.00in /  0mm 234 W/m2
14:59 75.7 °F /  24.3 °C 40.8 °F /  4.9 °C 30.10in /  1019.2hPa NNW 0.1mph /  0.2km/h 5mph /  8km/h 28.5% 0.00in /  0mm 241 W/m2
15:04 75.6 °F /  24.2 °C 39.5 °F /  4.2 °C 30.10in /  1019.2hPa North 0.1mph /  0.2km/h 5mph /  8km/h 27.2% 0.00in /  0mm 236 W/m2
15:09 75.6 °F /  24.2 °C 39.8 °F /  4.3 °C 30.10in /  1019.2hPa North 0.3mph /  0.5km/h 2mph /  3.2km/h 27.5% 0.00in /  0mm 186 W/m2
15:14 75.5 °F /  24.2 °C 41.5 °F /  5.3 °C 30.10in /  1019.2hPa Calm   2mph /  3.2km/h 29.5% 0.00in /  0mm 158 W/m2
15:19 75.5 °F /  24.2 °C 42.5 °F /  5.8 °C 30.10in /  1019.2hPa Calm   2mph /  3.2km/h 30.7% 0.00in /  0mm 144 W/m2
15:24 75.5 °F /  24.2 °C 42.4 °F /  5.8 °C 30.10in /  1019.2hPa Calm   2mph /  3.2km/h 30.6% 0.00in /  0mm 139 W/m2
15:29 75.3 °F /  24.1 °C 40 °F /  4.4 °C 30.10in /  1019.2hPa Calm   2mph /  3.2km/h 28% 0.00in /  0mm 130 W/m2
15:34 75.2 °F /  24 °C 40.9 °F /  4.9 °C 30.10in /  1019.2hPa Calm   2mph /  3.2km/h 29.2% 0.00in /  0mm 130 W/m2
15:39 75 °F /  23.9 °C 40.2 °F /  4.6 °C 30.09in /  1018.8hPa NE 0.3mph /  0.5km/h 2mph /  3.2km/h 28.5% 0.00in /  0mm 125 W/m2
15:44 74.7 °F /  23.7 °C 39.3 °F /  4.1 °C 30.09in /  1018.8hPa Calm   2mph /  3.2km/h 27.9% 0.00in /  0mm 134 W/m2
15:49 74.4 °F /  23.6 °C 40.3 °F /  4.6 °C 30.09in /  1018.8hPa Calm   2mph /  3.2km/h 29.2% 0.00in /  0mm 163 W/m2
15:54 74.3 °F /  23.5 °C 41.1 °F /  5.1 °C 30.09in /  1018.8hPa Calm   2mph /  3.2km/h 30.3% 0.00in /  0mm 178 W/m2
15:59 74.2 °F /  23.4 °C 40.8 °F /  4.9 °C 30.09in /  1018.8hPa Calm   2mph /  3.2km/h 30.1% 0.00in /  0mm 174 W/m2
16:00 74.1 °F /  23.4 °C 39.8 °F /  4.3 °C 30.09in /  1018.8hPa Calm   2mph /  3.2km/h 29% 0.00in /  0mm 153 W/m2
16:09 74.2 °F /  23.4 °C 38.9 °F /  3.8 °C 30.09in /  1018.8hPa ENE 0.2mph /  0.3km/h 4mph /  6.4km/h 27.8% 0.00in /  0mm 139 W/m2
16:14 74.3 °F /  23.5 °C 40.3 °F /  4.6 °C 30.09in /  1018.8hPa Calm   4mph /  6.4km/h 29.4% 0.00in /  0mm 132 W/m2
16:19 74.4 °F /  23.6 °C 40.1 °F /  4.5 °C 30.09in /  1018.8hPa Calm   4mph /  6.4km/h 29% 0.00in /  0mm 151 W/m2
16:24 74.4 °F /  23.6 °C 40 °F /  4.4 °C 30.08in /  1018.5hPa ENE 0.2mph /  0.3km/h 4mph /  6.4km/h 28.9% 0.00in /  0mm 169 W/m2
16:29 74.5 °F /  23.6 °C 39.4 °F /  4.1 °C 30.08in /  1018.5hPa ENE 0.2mph /  0.3km/h 4mph /  6.4km/h 28.1% 0.00in /  0mm 185 W/m2
16:34 74.4 °F /  23.6 °C 39 °F /  3.9 °C 30.08in /  1018.5hPa Calm   4mph /  6.4km/h 27.8% 0.00in /  0mm 188 W/m2
16:39 74.4 °F /  23.6 °C 39 °F /  3.9 °C 30.08in /  1018.5hPa Calm   1mph /  1.6km/h 27.8% 0.00in /  0mm 207 W/m2
16:44 74.4 °F /  23.6 °C 38.6 °F /  3.7 °C 30.08in /  1018.5hPa Calm   1mph /  1.6km/h 27.3% 0.00in /  0mm 200 W/m2
16:49 74.6 °F /  23.7 °C 40.4 °F /  4.7 °C 30.08in /  1018.5hPa Calm   1mph /  1.6km/h 29.2% 0.00in /  0mm 178 W/m2
16:54 74.6 °F /  23.7 °C 40 °F /  4.4 °C 30.08in /  1018.5hPa Calm   1mph /  1.6km/h 28.7% 0.00in /  0mm 142 W/m2
16:59 74.5 °F /  23.6 °C 41 °F /  5 °C 30.08in /  1018.5hPa ENE 0.2mph /  0.3km/h 2mph /  3.2km/h 29.9% 0.00in /  0mm 104 W/m2
17:04 74.1 °F /  23.4 °C 40.8 °F /  4.9 °C 30.08in /  1018.5hPa ENE 0.1mph /  0.2km/h 2mph /  3.2km/h 30% 0.00in /  0mm 91 W/m2
17:09 73.8 °F /  23.2 °C 41 °F /  5 °C 30.08in /  1018.5hPa Calm   2mph /  3.2km/h 30.6% 0.00in /  0mm 91 W/m2
17:14 73.6 °F /  23.1 °C 41.3 °F /  5.2 °C 30.08in /  1018.5hPa Calm   2mph /  3.2km/h 31.2% 0.00in /  0mm 86 W/m2
17:19 73.3 °F /  22.9 °C 41.4 °F /  5.2 °C 30.08in /  1018.5hPa Calm   2mph /  3.2km/h 31.7% 0.00in /  0mm 83 W/m2
17:24 73 °F /  22.8 °C 41.1 °F /  5.1 °C 30.08in /  1018.5hPa Calm   2mph /  3.2km/h 31.6% 0.00in /  0mm 67 W/m2
17:29 72.8 °F /  22.7 °C 41.1 °F /  5.1 °C 30.08in /  1018.5hPa Calm   2mph /  3.2km/h 31.8% 0.00in /  0mm 62 W/m2
17:34 72.6 °F /  22.6 °C 41.7 °F /  5.4 °C 30.08in /  1018.5hPa Calm   2mph /  3.2km/h 32.7% 0.00in /  0mm 60 W/m2
17:39 72.5 °F /  22.5 °C 41.6 °F /  5.3 °C 30.08in /  1018.5hPa Calm     32.7% 0.00in /  0mm 56 W/m2
17:44 72.4 °F /  22.4 °C 42.1 °F /  5.6 °C 30.08in /  1018.5hPa Calm     33.5% 0.00in /  0mm 56 W/m2
17:49 72.3 °F /  22.4 °C 42.8 °F /  6 °C 30.08in /  1018.5hPa Calm     34.5% 0.00in /  0mm 54 W/m2
17:54 72.2 °F /  22.3 °C 42.7 °F /  5.9 °C 30.08in /  1018.5hPa Calm     34.6% 0.00in /  0mm 58 W/m2
17:59 72 °F /  22.2 °C 42 °F /  5.6 °C 30.08in /  1018.5hPa Calm   1mph /  1.6km/h 33.9% 0.00in /  0mm 60 W/m2
18:04 71.9 °F /  22.2 °C 41.8 °F /  5.4 °C 30.08in /  1018.5hPa Calm   1mph /  1.6km/h 33.7% 0.00in /  0mm 60 W/m2
18:09 71.8 °F /  22.1 °C 42.1 °F /  5.6 °C 30.09in /  1018.8hPa Calm     34.2% 0.00in /  0mm 53 W/m2
18:14 71.7 °F /  22.1 °C 41.3 °F /  5.2 °C 30.09in /  1018.8hPa Calm     33.3% 0.00in /  0mm 44 W/m2
18:19 71.6 °F /  22 °C 41.2 °F /  5.1 °C 30.08in /  1018.5hPa Calm     33.2% 0.00in /  0mm 44 W/m2
18:24 71.5 °F /  21.9 °C 41.3 °F /  5.2 °C 30.08in /  1018.5hPa Calm     33.5% 0.00in /  0mm 46 W/m2
18:29 71.4 °F /  21.9 °C 41.7 °F /  5.4 °C 30.08in /  1018.5hPa Calm     34.1% 0.00in /  0mm 46 W/m2
18:34 71.3 °F /  21.8 °C 42 °F /  5.6 °C 30.08in /  1018.5hPa Calm     34.6% 0.00in /  0mm 42 W/m2
18:39 71.3 °F /  21.8 °C 42.1 °F /  5.6 °C 30.09in /  1018.8hPa Calm     34.8% 0.00in /  0mm 40 W/m2
18:44 71.2 °F /  21.8 °C 42.2 °F /  5.7 °C 30.09in /  1018.8hPa Calm     35% 0.00in /  0mm 39 W/m2
18:49 71.1 °F /  21.7 °C 42.4 °F /  5.8 °C 30.09in /  1018.8hPa ENE 0.5mph /  0.8km/h 3mph /  4.8km/h 35.4% 0.00in /  0mm 39 W/m2
18:54 71 °F /  21.7 °C 43.3 °F /  6.3 °C 30.09in /  1018.8hPa Calm   3mph /  4.8km/h 36.8% 0.00in /  0mm 37 W/m2
18:59 70.8 °F /  21.6 °C 43.3 °F /  6.3 °C 30.09in /  1018.8hPa SSE 0.8mph /  1.3km/h 5mph /  8km/h 37% 0.00in /  0mm 33 W/m2
19:04 70.6 °F /  21.4 °C 42.1 °F /  5.6 °C 30.09in /  1018.8hPa West 1.7mph /  2.7km/h 10mph /  16.1km/h 35.6% 0.00in /  0mm 37 W/m2
19:09 70.6 °F /  21.4 °C 40.3 °F /  4.6 °C 30.10in /  1019.2hPa WNW 8.3mph /  13.4km/h 20mph /  32.2km/h 33.2% 0.00in /  0mm 39 W/m2
19:14 70.7 °F /  21.5 °C 39.8 °F /  4.3 °C 30.10in /  1019.2hPa WNW 5.4mph /  8.7km/h 20mph /  32.2km/h 32.5% 0.00in /  0mm 42 W/m2
19:19 70.8 °F /  21.6 °C 40.2 °F /  4.6 °C 30.09in /  1018.8hPa WSW 0.4mph /  0.6km/h 20mph /  32.2km/h 32.8% 0.00in /  0mm 44 W/m2
19:24 70.9 °F /  21.6 °C 40.7 °F /  4.8 °C 30.09in /  1018.8hPa WNW 0.5mph /  0.8km/h 20mph /  32.2km/h 33.4% 0.00in /  0mm 47 W/m2
19:29 70.8 °F /  21.6 °C 39.8 °F /  4.3 °C 30.09in /  1018.8hPa NW 0.2mph /  0.3km/h 20mph /  32.2km/h 32.3% 0.00in /  0mm 47 W/m2
19:34 70.8 °F /  21.6 °C 40.1 °F /  4.5 °C 30.09in /  1018.8hPa Calm   20mph /  32.2km/h 32.7% 0.00in /  0mm 44 W/m2
19:39 70.8 °F /  21.6 °C 40 °F /  4.4 °C 30.10in /  1019.2hPa NW 0.4mph /  0.6km/h 4mph /  6.4km/h 32.6% 0.00in /  0mm 35 W/m2
19:44 70.8 °F /  21.6 °C 38.7 °F /  3.7 °C 30.10in /  1019.2hPa NW 0.3mph /  0.5km/h 4mph /  6.4km/h 31% 0.00in /  0mm 23 W/m2
19:49 70.8 °F /  21.6 °C 38.7 °F /  3.7 °C 30.10in /  1019.2hPa NW 0.1mph /  0.2km/h 4mph /  6.4km/h 31% 0.00in /  0mm 14 W/m2
19:54 70.7 °F /  21.5 °C 38.6 °F /  3.7 °C 30.10in /  1019.2hPa NW 0.1mph /  0.2km/h 4mph /  6.4km/h 31% 0.00in /  0mm 7 W/m2
19:59 70.6 °F /  21.4 °C 39.3 °F /  4.1 °C 30.10in /  1019.2hPa NW 0.2mph /  0.3km/h 4mph /  6.4km/h 32% 0.00in /  0mm 5 W/m2
20:00 70.5 °F /  21.4 °C 39.3 °F /  4.1 °C 30.10in /  1019.2hPa Calm   4mph /  6.4km/h 32% 0.00in /  0mm 0 W/m2
20:09 70.1 °F /  21.2 °C 39.5 °F /  4.2 °C 30.10in /  1019.2hPa Calm     32.7% 0.00in /  0mm 0 W/m2
20:14 69.8 °F /  21 °C 39.6 °F /  4.2 °C 30.11in /  1019.5hPa Calm     33.1% 0.00in /  0mm 0 W/m2
20:19 69.5 °F /  20.8 °C 40.1 °F /  4.5 °C 30.11in /  1019.5hPa Calm     34.3% 0.00in /  0mm 0 W/m2
20:24 69.1 °F /  20.6 °C 40.3 °F /  4.6 °C 30.11in /  1019.5hPa Calm     35% 0.00in /  0mm 0 W/m2
20:29 68.6 °F /  20.3 °C 39.9 °F /  4.4 °C 30.11in /  1019.5hPa Calm     35% 0.00in /  0mm 0 W/m2
20:34 68.2 °F /  20.1 °C 40.4 °F /  4.7 °C 30.11in /  1019.5hPa Calm     36.2% 0.00in /  0mm 0 W/m2
20:39 67.6 °F /  19.8 °C 40.2 °F /  4.6 °C 30.11in /  1019.5hPa Calm     36.7% 0.00in /  0mm 0 W/m2
20:44 67 °F /  19.4 °C 40.2 °F /  4.6 °C 30.12in /  1019.9hPa Calm     37.5% 0.00in /  0mm 0 W/m2
20:49 66.5 °F /  19.2 °C 40 °F /  4.4 °C 30.12in /  1019.9hPa Calm     37.8% 0.00in /  0mm 0 W/m2
20:54 66.1 °F /  18.9 °C 39.8 °F /  4.3 °C 30.12in /  1019.9hPa Calm     38% 0.00in /  0mm 0 W/m2
20:59 65.8 °F /  18.8 °C 40.2 °F /  4.6 °C 30.12in /  1019.9hPa Calm     39.1% 0.00in /  0mm 0 W/m2
21:04 65.5 °F /  18.6 °C 41.1 °F /  5.1 °C 30.12in /  1019.9hPa Calm     40.9% 0.00in /  0mm 0 W/m2
21:09 65.2 °F /  18.4 °C 41.6 °F /  5.3 °C 30.13in /  1020.2hPa Calm   1mph /  1.6km/h 42% 0.00in /  0mm 0 W/m2
21:14 65.1 °F /  18.4 °C 42.2 °F /  5.7 °C 30.13in /  1020.2hPa Calm   1mph /  1.6km/h 43.3% 0.00in /  0mm 0 W/m2
21:19 64.9 °F /  18.3 °C 42.4 °F /  5.8 °C 30.13in /  1020.2hPa Calm   1mph /  1.6km/h 44% 0.00in /  0mm 0 W/m2
21:24 64.7 °F /  18.2 °C 42.4 °F /  5.8 °C 30.13in /  1020.2hPa Calm   1mph /  1.6km/h 44.2% 0.00in /  0mm 0 W/m2
21:29 64.5 °F /  18.1 °C 42.2 °F /  5.7 °C 30.13in /  1020.2hPa Calm   1mph /  1.6km/h 44.1% 0.00in /  0mm 0 W/m2
21:34 64.4 °F /  18 °C 42.2 °F /  5.7 °C 30.14in /  1020.5hPa Calm   1mph /  1.6km/h 44.2% 0.00in /  0mm 0 W/m2
21:39 64.4 °F /  18 °C 42.4 °F /  5.8 °C 30.14in /  1020.5hPa Calm     44.7% 0.00in /  0mm 0 W/m2
21:44 64.3 °F /  17.9 °C 42.8 °F /  6 °C 30.14in /  1020.5hPa Calm     45.5% 0.00in /  0mm 0 W/m2
21:49 64.2 °F /  17.9 °C 43.3 °F /  6.3 °C 30.14in /  1020.5hPa Calm     46.7% 0.00in /  0mm 0 W/m2
21:54 63.9 °F /  17.7 °C 43.7 °F /  6.5 °C 30.14in /  1020.5hPa Calm     47.6% 0.00in /  0mm 0 W/m2
21:59 63.6 °F /  17.6 °C 43.9 °F /  6.6 °C 30.14in /  1020.5hPa Calm     48.6% 0.00in /  0mm 0 W/m2
22:04 63.3 °F /  17.4 °C 44.1 °F /  6.7 °C 30.14in /  1020.5hPa Calm     49.6% 0.00in /  0mm 0 W/m2
22:09 63 °F /  17.2 °C 44.1 °F /  6.7 °C 30.14in /  1020.5hPa Calm     50% 0.00in /  0mm 0 W/m2
22:14 62.8 °F /  17.1 °C 43.8 °F /  6.6 °C 30.14in /  1020.5hPa Calm     49.8% 0.00in /  0mm 0 W/m2
22:19 62.7 °F /  17.1 °C 43.4 °F /  6.3 °C 30.14in /  1020.5hPa Calm     49.3% 0.00in /  0mm 0 W/m2
22:24 62.5 °F /  16.9 °C 43.3 °F /  6.3 °C 30.14in /  1020.5hPa Calm     49.3% 0.00in /  0mm 0 W/m2
22:29 62.4 °F /  16.9 °C 42.9 °F /  6.1 °C 30.14in /  1020.5hPa Calm     48.7% 0.00in /  0mm 0 W/m2
22:34 62.4 °F /  16.9 °C 42.8 °F /  6 °C 30.14in /  1020.5hPa Calm     48.6% 0.00in /  0mm 0 W/m2
22:39 62.3 °F /  16.8 °C 43 °F /  6.1 °C 30.14in /  1020.5hPa Calm     49.2% 0.00in /  0mm 0 W/m2
22:44 62.3 °F /  16.8 °C 43.2 °F /  6.2 °C 30.14in /  1020.5hPa Calm     49.6% 0.00in /  0mm 0 W/m2
22:49 62.3 °F /  16.8 °C 44 °F /  6.7 °C 30.15in /  1020.9hPa Calm     51% 0.00in /  0mm 0 W/m2
22:54 62.2 °F /  16.8 °C 43.9 °F /  6.6 °C 30.15in /  1020.9hPa Calm     51% 0.00in /  0mm 0 W/m2
22:59 62.1 °F /  16.7 °C 43.8 °F /  6.6 °C 30.14in /  1020.5hPa Calm     51% 0.00in /  0mm 0 W/m2
23:04 62 °F /  16.7 °C 43.7 °F /  6.5 °C 30.14in /  1020.5hPa Calm     51% 0.00in /  0mm 0 W/m2
23:09 61.9 °F /  16.6 °C 43.9 °F /  6.6 °C 30.15in /  1020.9hPa Calm     51.6% 0.00in /  0mm 0 W/m2
23:14 61.8 °F /  16.6 °C 44.1 °F /  6.7 °C 30.15in /  1020.9hPa Calm     52.1% 0.00in /  0mm 0 W/m2
23:19 61.7 °F /  16.5 °C 43.9 °F /  6.6 °C 30.15in /  1020.9hPa Calm     52% 0.00in /  0mm 0 W/m2
23:24 61.6 °F /  16.4 °C 44.2 °F /  6.8 °C 30.15in /  1020.9hPa Calm     52.7% 0.00in /  0mm 0 W/m2
23:29 61.5 °F /  16.4 °C 45 °F /  7.2 °C 30.15in /  1020.9hPa Calm     54.8% 0.00in /  0mm 0 W/m2
23:34 61.2 °F /  16.2 °C 45.4 °F /  7.4 °C 30.15in /  1020.9hPa Calm     56% 0.00in /  0mm 0 W/m2
23:39 60.9 °F /  16.1 °C 45.1 °F /  7.3 °C 30.15in /  1020.9hPa Calm     56% 0.00in /  0mm 0 W/m2
23:44 60.6 °F /  15.9 °C 45.1 °F /  7.3 °C 30.15in /  1020.9hPa Calm     56.5% 0.00in /  0mm 0 W/m2
23:49 60.5 °F /  15.8 °C 45.2 °F /  7.3 °C 30.14in /  1020.5hPa Calm     57% 0.00in /  0mm 0 W/m2
23:54 60.3 °F /  15.7 °C 45 °F /  7.2 °C 30.15in /  1020.9hPa Calm     57% 0.00in /  0mm 0 W/m2
23:59 60.2 °F /  15.7 °C 45.3 °F /  7.4 °C 30.15in /  1020.9hPa Calm     57.9% 0.00in /  0mm 0 W/m2
Hartford County Weather
Compliments of Weather Underground - 4 mb